createdAt,value
2022-12-13T00:01:23.950Z,25.48
2022-12-13T00:03:53.722Z,25.63
2022-12-13T00:06:20.468Z,24.73
2022-12-13T00:08:47.215Z,25.52
2022-12-13T00:11:14.470Z,25.08
2022-12-13T00:13:42.489Z,28.33
2022-12-13T00:16:15.116Z,27.67
2022-12-13T00:18:42.092Z,24.67
2022-12-13T00:21:12.128Z,27.52
2022-12-13T00:23:39.019Z,24.17
2022-12-13T00:26:07.558Z,28.17
2022-12-13T00:28:34.266Z,27.00
2022-12-13T00:31:26.090Z,25.80
2022-12-13T00:33:49.478Z,24.83
2022-12-13T00:36:16.729Z,26.05
2022-12-13T00:38:43.371Z,28.35
2022-12-13T00:41:34.664Z,25.60
2022-12-13T00:44:02.470Z,27.83
2022-12-13T00:46:29.638Z,27.80
2022-12-13T00:48:58.355Z,27.95
2022-12-13T00:51:25.981Z,26.58
2022-12-13T00:53:52.811Z,29.00
2022-12-13T00:56:21.979Z,27.25
2022-12-13T00:58:52.069Z,27.95
2022-12-13T01:01:21.530Z,29.80
2022-12-13T01:03:49.421Z,29.15
2022-12-13T01:06:22.617Z,27.77
2022-12-13T01:08:49.575Z,25.75
2022-12-13T01:11:16.544Z,25.95
2022-12-13T01:13:43.211Z,28.27
2022-12-13T01:16:11.305Z,25.75
2022-12-13T01:18:38.823Z,28.45
2022-12-13T01:21:12.158Z,25.40
2022-12-13T01:23:39.375Z,23.77
2022-12-13T01:26:07.811Z,28.52
2022-12-13T01:28:34.529Z,26.38
2022-12-13T01:31:04.808Z,24.25
2022-12-13T01:33:32.284Z,26.15
2022-12-13T01:36:06.645Z,26.02
2022-12-13T01:38:37.692Z,26.35
2022-12-13T01:41:16.967Z,27.95
2022-12-13T01:43:44.984Z,27.33
2022-12-13T01:46:13.110Z,26.92
2022-12-13T01:48:46.147Z,25.45
2022-12-13T01:51:15.387Z,26.85
2022-12-13T01:53:43.980Z,24.40
2022-12-13T01:56:15.293Z,23.92
2022-12-13T01:58:42.251Z,27.10
2022-12-13T02:01:09.225Z,27.17
2022-12-13T02:03:36.138Z,22.90
2022-12-13T02:06:06.888Z,27.15
2022-12-13T02:08:36.017Z,28.58
2022-12-13T02:11:04.139Z,24.08
2022-12-13T02:13:30.844Z,26.75
2022-12-13T02:16:22.317Z,25.65
2022-12-13T02:18:58.119Z,24.63
2022-12-13T02:21:36.108Z,22.98
2022-12-13T02:24:27.616Z,24.50
2022-12-13T02:27:10.776Z,23.13
2022-12-13T02:30:06.374Z,22.80
2022-12-13T02:32:54.332Z,25.40
2022-12-13T02:35:22.907Z,23.85
2022-12-13T02:38:10.788Z,25.75
2022-12-13T02:40:45.921Z,23.98
2022-12-13T02:43:33.833Z,27.02
2022-12-13T02:46:01.889Z,24.10
2022-12-13T02:48:36.317Z,24.45
2022-12-13T02:51:04.260Z,25.17
2022-12-13T02:53:33.874Z,24.40
2022-12-13T02:56:00.811Z,27.13
2022-12-13T02:58:31.457Z,24.67
2022-12-13T03:01:28.847Z,23.42
2022-12-13T03:04:02.341Z,23.67
2022-12-13T03:07:01.228Z,22.50
2022-12-13T03:09:41.128Z,21.45
2022-12-13T03:12:48.726Z,23.25
2022-12-13T03:15:24.269Z,23.60
2022-12-13T03:17:55.906Z,22.02
2022-12-13T03:20:25.642Z,25.08
2022-12-13T03:22:52.809Z,24.42
2022-12-13T03:25:31.907Z,23.17
2022-12-13T03:28:01.330Z,24.10
2022-12-13T03:30:30.831Z,23.63
2022-12-13T03:32:57.520Z,20.48
2022-12-13T03:35:25.218Z,25.08
2022-12-13T03:38:02.328Z,21.30
2022-12-13T03:40:29.868Z,22.58
2022-12-13T03:42:56.711Z,23.48
2022-12-13T03:45:23.480Z,21.27
2022-12-13T03:47:50.193Z,24.63
2022-12-13T03:50:26.896Z,23.20
2022-12-13T03:53:01.697Z,23.23
2022-12-13T03:55:28.874Z,22.50
2022-12-13T03:57:55.836Z,21.88
2022-12-13T04:00:22.677Z,20.20
2022-12-13T04:02:49.404Z,24.67
2022-12-13T04:05:16.438Z,21.92
2022-12-13T04:07:47.907Z,20.52
2022-12-13T04:10:26.414Z,22.90
2022-12-13T04:13:12.557Z,24.15
2022-12-13T04:15:39.488Z,23.80
2022-12-13T04:18:06.260Z,21.23
2022-12-13T04:20:32.945Z,23.77
2022-12-13T04:22:59.606Z,21.52
2022-12-13T04:25:26.669Z,21.20
2022-12-13T04:27:53.356Z,22.20
2022-12-13T04:30:20.038Z,20.00
2022-12-13T04:32:46.787Z,21.05
2022-12-13T04:35:13.599Z,20.02
2022-12-13T04:37:40.435Z,19.65
2022-12-13T04:40:11.054Z,22.20
2022-12-13T04:42:38.183Z,19.05
2022-12-13T04:45:05.512Z,23.20
2022-12-13T04:47:32.253Z,20.70
2022-12-13T04:49:59.057Z,21.38
2022-12-13T04:52:25.719Z,21.85
2022-12-13T04:54:55.324Z,19.10
2022-12-13T04:57:23.438Z,19.42
2022-12-13T04:59:50.076Z,20.85
2022-12-13T05:02:23.401Z,20.85
2022-12-13T05:04:53.564Z,21.90
2022-12-13T05:07:23.059Z,19.77
2022-12-13T05:09:49.824Z,21.25
2022-12-13T05:12:22.352Z,22.30
2022-12-13T05:14:50.780Z,20.40
2022-12-13T05:17:17.702Z,18.33
2022-12-13T05:19:44.765Z,19.10
2022-12-13T05:22:21.396Z,18.45
2022-12-13T05:24:48.804Z,19.50
2022-12-13T05:27:24.859Z,20.45
2022-12-13T05:30:04.170Z,19.35
2022-12-13T05:32:43.895Z,19.63
2022-12-13T05:35:23.195Z,19.58
2022-12-13T05:37:55.104Z,19.88
2022-12-13T05:40:23.307Z,18.83
2022-12-13T05:42:50.141Z,19.33
2022-12-13T05:45:18.553Z,20.77
2022-12-13T05:47:45.551Z,24.25
2022-12-13T05:50:13.150Z,22.05
2022-12-13T05:52:43.843Z,23.65
2022-12-13T05:55:11.813Z,20.45
2022-12-13T05:57:38.827Z,22.30
2022-12-13T06:00:30.092Z,23.42
2022-12-13T06:02:55.476Z,23.67
2022-12-13T06:05:22.690Z,22.65
2022-12-13T06:07:53.642Z,24.35
2022-12-13T06:10:23.615Z,23.48
2022-12-13T06:12:50.343Z,25.67
2022-12-13T06:15:22.664Z,25.42
2022-12-13T06:17:49.711Z,23.15
2022-12-13T06:20:22.978Z,21.88
2022-12-13T06:22:54.229Z,23.95
2022-12-13T06:25:31.413Z,23.15
2022-12-13T06:28:01.488Z,24.38
2022-12-13T06:30:31.766Z,24.35
2022-12-13T06:32:58.569Z,24.45
2022-12-13T06:35:27.936Z,27.52
2022-12-13T06:38:11.707Z,23.25
2022-12-13T06:40:42.585Z,23.23
2022-12-13T06:43:10.247Z,26.88
2022-12-13T06:45:40.571Z,26.23
2022-12-13T06:48:07.322Z,23.02
2022-12-13T06:50:34.330Z,23.52
2022-12-13T06:53:01.091Z,25.95
2022-12-13T06:55:27.915Z,26.63
2022-12-13T06:57:54.631Z,25.27
2022-12-13T07:00:21.623Z,26.13
2022-12-13T07:02:55.209Z,25.00
2022-12-13T07:05:22.469Z,24.15
2022-12-13T07:07:49.278Z,25.48
2022-12-13T07:10:22.368Z,22.90
2022-12-13T07:12:50.101Z,23.52
2022-12-13T07:15:17.119Z,23.38
2022-12-13T07:17:43.979Z,24.17
2022-12-13T07:20:13.685Z,24.80
2022-12-13T07:22:47.136Z,23.52
2022-12-13T07:25:27.636Z,23.65
2022-12-13T07:28:06.144Z,22.55
2022-12-13T07:30:41.189Z,27.50
2022-12-13T07:33:08.300Z,25.50
2022-12-13T07:35:36.842Z,25.83
2022-12-13T07:38:09.749Z,24.70
2022-12-13T07:40:38.400Z,23.02
2022-12-13T07:43:05.676Z,25.90
2022-12-13T07:45:32.932Z,23.75
2022-12-13T07:48:04.409Z,23.55
2022-12-13T07:50:37.413Z,24.45
2022-12-13T07:53:08.525Z,23.05
2022-12-13T07:55:35.788Z,23.15
2022-12-13T07:58:04.753Z,25.20
2022-12-13T08:00:33.027Z,24.25
2022-12-13T08:03:01.709Z,23.75
2022-12-13T08:05:29.010Z,23.98
2022-12-13T08:08:07.315Z,22.27
2022-12-13T08:10:34.111Z,20.13
2022-12-13T08:13:04.686Z,24.35
2022-12-13T08:15:32.519Z,22.40
2022-12-13T08:18:02.053Z,22.40
2022-12-13T08:20:29.100Z,23.00
2022-12-13T08:23:02.011Z,20.75
2022-12-13T08:25:29.710Z,18.95
2022-12-13T08:28:02.143Z,23.30
2022-12-13T08:30:30.254Z,21.38
2022-12-13T08:32:57.836Z,22.08
2022-12-13T08:35:33.745Z,20.63
2022-12-13T08:38:01.189Z,21.38
2022-12-13T08:40:28.066Z,22.27
2022-12-13T08:42:55.855Z,24.33
2022-12-13T08:45:24.330Z,21.35
2022-12-13T08:47:51.351Z,20.05
2022-12-13T08:50:18.134Z,19.30
2022-12-13T08:52:45.377Z,21.15
2022-12-13T08:55:13.896Z,23.63
2022-12-13T08:57:41.696Z,20.48
2022-12-13T09:00:11.689Z,21.42
2022-12-13T09:02:39.166Z,21.65
2022-12-13T09:05:07.641Z,21.85
2022-12-13T09:07:36.448Z,21.30
2022-12-13T09:10:25.357Z,21.73
2022-12-13T09:12:52.027Z,20.38
2022-12-13T09:15:29.075Z,19.35
2022-12-13T09:18:04.294Z,22.50
2022-12-13T09:20:32.085Z,24.08
2022-12-13T09:23:08.125Z,23.25
2022-12-13T09:25:41.263Z,22.95
2022-12-13T09:28:09.674Z,22.73
2022-12-13T09:30:37.867Z,19.58
2022-12-13T09:33:18.260Z,19.25
2022-12-13T09:35:52.377Z,21.17
2022-12-13T09:38:19.422Z,23.05
2022-12-13T09:40:48.508Z,19.88
2022-12-13T09:43:32.104Z,19.42
2022-12-13T09:46:04.532Z,19.15
2022-12-13T09:48:40.659Z,22.67
2022-12-13T09:51:28.467Z,20.50
2022-12-13T09:53:58.366Z,21.10
2022-12-13T09:56:25.198Z,17.60
2022-12-13T09:58:53.600Z,19.08
2022-12-13T10:01:22.648Z,20.08
2022-12-13T10:03:52.414Z,16.85
2022-12-13T10:06:23.242Z,20.10
2022-12-13T10:08:57.285Z,16.95
2022-12-13T10:11:31.825Z,18.98
2022-12-13T10:14:07.136Z,19.48
2022-12-13T10:16:37.363Z,17.48
2022-12-13T10:19:28.966Z,18.70
2022-12-13T10:22:01.877Z,19.10
2022-12-13T10:24:55.896Z,18.33
2022-12-13T10:27:43.805Z,17.58
2022-12-13T10:30:13.836Z,18.17
2022-12-13T10:32:50.208Z,18.08
2022-12-13T10:35:35.279Z,17.92
2022-12-13T10:38:31.486Z,17.73
2022-12-13T10:40:58.862Z,18.08
2022-12-13T10:43:28.425Z,18.20
2022-12-13T10:46:01.401Z,19.02
2022-12-13T10:48:38.867Z,18.50
2022-12-13T10:51:14.171Z,17.98
2022-12-13T10:53:55.752Z,19.17
2022-12-13T10:56:24.017Z,17.17
2022-12-13T10:59:15.155Z,20.65
2022-12-13T11:01:44.486Z,21.42
2022-12-13T11:04:36.079Z,18.50
2022-12-13T11:07:31.935Z,15.73
2022-12-13T11:10:16.717Z,19.15
2022-12-13T11:12:45.035Z,18.98
2022-12-13T11:15:23.187Z,17.65
2022-12-13T11:17:53.148Z,17.35
2022-12-13T11:20:22.985Z,17.23
2022-12-13T11:22:50.430Z,16.90
2022-12-13T11:25:23.083Z,19.77
2022-12-13T11:28:45.555Z,17.35
2022-12-13T11:31:44.476Z,15.43
2022-12-13T11:34:39.293Z,16.38
2022-12-13T11:37:26.439Z,15.75
2022-12-13T11:40:01.605Z,16.63
2022-12-13T11:43:21.723Z,17.02
2022-12-13T11:45:54.497Z,14.40
2022-12-13T11:48:32.331Z,15.70
2022-12-13T11:51:01.003Z,16.00
2022-12-13T11:53:31.848Z,14.77
2022-12-13T11:56:21.459Z,15.30
2022-12-13T11:59:03.094Z,15.60
2022-12-13T12:01:38.398Z,16.70
2022-12-13T12:04:17.796Z,13.98
2022-12-13T12:06:51.915Z,15.20
2022-12-13T12:09:21.259Z,17.70
2022-12-13T12:12:00.877Z,20.60
2022-12-13T12:14:52.738Z,17.25
2022-12-13T12:17:23.643Z,16.42
2022-12-13T12:19:53.175Z,14.65
2022-12-13T12:22:39.192Z,16.02
2022-12-13T12:25:25.125Z,18.35
2022-12-13T12:28:25.598Z,15.82
2022-12-13T12:31:19.198Z,16.25
2022-12-13T12:34:05.757Z,16.65
2022-12-13T12:36:38.561Z,17.88
2022-12-13T12:40:03.748Z,15.88
2022-12-13T12:43:14.244Z,15.02
2022-12-13T12:46:02.906Z,15.18
2022-12-13T12:49:02.411Z,15.68
2022-12-13T12:51:53.685Z,15.95
2022-12-13T12:54:32.459Z,16.92
2022-12-13T12:57:12.374Z,18.45
2022-12-13T13:00:01.192Z,14.95
2022-12-13T13:03:01.380Z,15.35
2022-12-13T13:05:43.049Z,17.40
2022-12-13T13:08:14.416Z,16.25
2022-12-13T13:10:42.420Z,19.98
2022-12-13T13:13:46.519Z,17.27
2022-12-13T13:16:42.865Z,15.07
2022-12-13T13:19:12.441Z,19.60
2022-12-13T13:21:44.183Z,15.90
2022-12-13T13:24:14.806Z,16.23
2022-12-13T13:26:44.296Z,16.33
2022-12-13T13:29:43.386Z,14.48
2022-12-13T13:32:27.943Z,14.30
2022-12-13T13:35:29.010Z,16.05
2022-12-13T13:37:57.335Z,19.60
2022-12-13T13:40:31.979Z,15.45
2022-12-13T13:43:11.042Z,15.60
2022-12-13T13:45:50.194Z,14.82
2022-12-13T13:48:27.255Z,12.80
2022-12-13T13:51:28.859Z,14.35
2022-12-13T13:54:23.926Z,16.40
2022-12-13T13:57:38.498Z,13.15
2022-12-13T14:00:15.658Z,14.15
2022-12-13T14:03:01.471Z,15.20
2022-12-13T14:05:51.794Z,16.45
2022-12-13T14:08:40.704Z,15.65
2022-12-13T14:11:18.285Z,18.45
2022-12-13T14:14:22.929Z,21.83
2022-12-13T14:17:14.859Z,18.25
2022-12-13T14:20:03.471Z,16.77
2022-12-13T14:22:37.737Z,17.15
2022-12-13T14:25:31.757Z,18.80
2022-12-13T14:28:19.392Z,18.70
2022-12-13T14:30:47.956Z,19.05
2022-12-13T14:33:25.519Z,20.65
2022-12-13T14:35:55.008Z,15.93
2022-12-13T14:38:30.949Z,19.17
2022-12-13T14:41:02.500Z,19.33
2022-12-13T14:43:31.306Z,19.60
2022-12-13T14:46:00.188Z,21.40
2022-12-13T14:48:27.868Z,20.55
2022-12-13T14:50:55.809Z,18.08
2022-12-13T14:53:25.491Z,18.15
2022-12-13T14:56:28.661Z,17.17
2022-12-13T14:59:01.206Z,18.55
2022-12-13T15:01:31.394Z,19.15
2022-12-13T15:04:26.163Z,18.50
2022-12-13T15:07:00.075Z,18.70
2022-12-13T15:09:29.083Z,19.48
2022-12-13T15:12:02.881Z,20.38
2022-12-13T15:14:43.929Z,20.05
2022-12-13T15:17:25.968Z,21.65
2022-12-13T15:19:54.511Z,20.65
2022-12-13T15:22:43.090Z,21.20
2022-12-13T15:25:13.656Z,28.85
2022-12-13T15:27:48.392Z,20.45
2022-12-13T15:30:15.462Z,22.50
2022-12-13T15:33:19.902Z,23.27
2022-12-13T15:35:48.673Z,25.33
2022-12-13T15:38:28.688Z,23.23
2022-12-13T15:40:56.461Z,27.83
2022-12-13T15:43:35.547Z,22.92
2022-12-13T15:46:02.667Z,27.92
2022-12-13T15:48:33.376Z,27.80
2022-12-13T15:51:11.367Z,27.45
2022-12-13T15:53:39.360Z,26.40
2022-12-13T15:56:30.150Z,27.80
2022-12-13T15:58:57.560Z,27.52
2022-12-13T16:01:32.777Z,28.55
2022-12-13T16:03:59.990Z,28.20
2022-12-13T16:06:28.081Z,24.85
2022-12-13T16:08:57.197Z,27.42
2022-12-13T16:11:33.759Z,28.10
2022-12-13T16:14:49.370Z,27.20
2022-12-13T16:17:25.203Z,30.52
2022-12-13T16:19:53.804Z,31.35
2022-12-13T16:22:23.800Z,28.88
2022-12-13T16:24:53.373Z,26.63
2022-12-13T16:27:20.095Z,28.58
2022-12-13T16:29:46.821Z,26.92
2022-12-13T16:32:13.512Z,25.77
2022-12-13T16:34:40.292Z,29.58
2022-12-13T16:37:25.434Z,24.90
2022-12-13T16:39:54.149Z,26.70
2022-12-13T16:42:20.881Z,25.20
2022-12-13T16:45:05.826Z,28.52
2022-12-13T16:47:46.383Z,26.63
2022-12-13T16:50:17.057Z,25.83
2022-12-13T16:52:44.349Z,25.77
2022-12-13T16:55:12.637Z,23.70
2022-12-13T16:57:40.098Z,27.08
2022-12-13T17:00:10.140Z,23.42
2022-12-13T17:02:38.037Z,24.67
2022-12-13T17:05:05.652Z,27.15
2022-12-13T17:07:35.750Z,31.88
2022-12-13T17:10:02.641Z,26.70
2022-12-13T17:12:29.778Z,29.05
2022-12-13T17:15:05.272Z,26.30
2022-12-13T17:17:32.252Z,29.70
2022-12-13T17:19:59.041Z,26.95
2022-12-13T17:22:25.996Z,25.85
2022-12-13T17:24:52.908Z,28.23
2022-12-13T17:27:19.893Z,27.40
2022-12-13T17:29:47.754Z,29.80
2022-12-13T17:32:14.488Z,30.15
2022-12-13T17:34:41.206Z,28.50
2022-12-13T17:37:10.615Z,31.35
2022-12-13T17:39:37.863Z,26.30
2022-12-13T17:42:04.576Z,32.70
2022-12-13T17:44:31.239Z,30.27
2022-12-13T17:46:59.701Z,28.48
2022-12-13T17:49:26.762Z,28.42
2022-12-13T17:51:54.578Z,28.73
2022-12-13T17:54:25.571Z,29.38
2022-12-13T17:56:53.646Z,30.75
2022-12-13T17:59:20.515Z,31.08
2022-12-13T18:01:47.533Z,31.33
2022-12-13T18:04:14.404Z,33.13
2022-12-13T18:06:41.870Z,33.90
2022-12-13T18:09:08.865Z,36.50
2022-12-13T18:11:35.859Z,29.98
2022-12-13T18:14:05.043Z,28.33
2022-12-13T18:16:37.602Z,30.15
2022-12-13T18:19:11.954Z,30.55
2022-12-13T18:21:39.430Z,32.05
2022-12-13T18:24:07.158Z,29.92
2022-12-13T18:26:34.547Z,32.97
2022-12-13T18:29:01.961Z,34.10
2022-12-13T18:31:28.764Z,32.95
2022-12-13T18:33:55.855Z,32.00
2022-12-13T18:36:24.762Z,32.15
2022-12-13T18:38:51.680Z,35.13
2022-12-13T18:41:23.761Z,35.35
2022-12-13T18:43:56.053Z,35.25
2022-12-13T18:46:27.612Z,35.38
2022-12-13T18:48:54.338Z,34.95
2022-12-13T18:51:21.080Z,35.20
2022-12-13T18:53:47.883Z,33.63
2022-12-13T18:56:18.832Z,32.10
2022-12-13T18:58:48.341Z,34.22
2022-12-13T19:01:16.497Z,34.10
2022-12-13T19:03:45.320Z,33.53
2022-12-13T19:06:17.552Z,31.85
2022-12-13T19:08:48.325Z,33.25
2022-12-13T19:11:16.074Z,30.83
2022-12-13T19:13:42.879Z,31.80
2022-12-13T19:16:11.854Z,32.95
2022-12-13T19:18:38.898Z,35.78
2022-12-13T19:21:08.097Z,33.97
2022-12-13T19:23:35.357Z,31.60
2022-12-13T19:26:10.018Z,33.78
2022-12-13T19:28:38.383Z,33.17
2022-12-13T19:31:06.465Z,34.72
2022-12-13T19:33:33.907Z,31.58
2022-12-13T19:36:00.850Z,31.45
2022-12-13T19:38:27.558Z,36.75
2022-12-13T19:40:54.390Z,32.50
2022-12-13T19:43:21.568Z,36.58
2022-12-13T19:45:48.770Z,33.60
2022-12-13T19:48:16.079Z,34.42
2022-12-13T19:50:44.409Z,37.10
2022-12-13T19:53:11.912Z,35.60
2022-12-13T19:55:43.884Z,33.72
2022-12-13T19:58:10.723Z,34.40
2022-12-13T20:00:37.740Z,33.25
2022-12-13T20:03:04.619Z,32.47
2022-12-13T20:05:31.500Z,31.30
2022-12-13T20:07:59.504Z,32.63
2022-12-13T20:10:27.097Z,32.97
2022-12-13T20:12:54.180Z,33.15
2022-12-13T20:15:21.014Z,34.70
2022-12-13T20:17:47.914Z,34.55
2022-12-13T20:20:14.696Z,30.95
2022-12-13T20:22:41.565Z,30.60
2022-12-13T20:25:10.526Z,33.88
2022-12-13T20:27:37.576Z,31.13
2022-12-13T20:30:05.427Z,33.95
2022-12-13T20:32:32.458Z,30.30
2022-12-13T20:34:59.122Z,29.77
2022-12-13T20:37:27.676Z,49.30
2022-12-13T20:39:54.371Z,55.33
2022-12-13T20:42:22.498Z,50.15
2022-12-13T20:44:49.304Z,34.97
2022-12-13T20:47:16.254Z,31.42
2022-12-13T20:49:44.448Z,33.97
2022-12-13T20:52:15.619Z,34.75
2022-12-13T20:54:42.313Z,32.80
2022-12-13T20:57:09.085Z,31.83
2022-12-13T20:59:36.678Z,36.30
2022-12-13T21:02:03.327Z,32.33
2022-12-13T21:04:30.309Z,30.77
2022-12-13T21:06:56.987Z,29.42
2022-12-13T21:09:23.725Z,30.27
2022-12-13T21:11:50.589Z,33.25
2022-12-13T21:14:25.615Z,31.65
2022-12-13T21:16:57.643Z,32.38
2022-12-13T21:19:26.335Z,29.00
2022-12-13T21:21:54.450Z,32.30
2022-12-13T21:24:23.121Z,33.25
2022-12-13T21:26:51.325Z,28.60
2022-12-13T21:29:18.053Z,29.95
2022-12-13T21:31:48.930Z,32.35
2022-12-13T21:34:17.505Z,29.73
2022-12-13T21:36:46.148Z,30.30
2022-12-13T21:39:30.012Z,33.63
2022-12-13T21:41:57.243Z,31.35
2022-12-13T21:44:24.005Z,34.45
2022-12-13T21:49:38.073Z,35.15
2022-12-13T21:52:04.994Z,37.35
2022-12-13T21:54:31.681Z,36.83
2022-12-13T21:57:17.245Z,36.35
2022-12-13T21:59:44.020Z,34.33
2022-12-13T22:02:16.814Z,36.60
2022-12-13T22:04:46.327Z,36.70
2022-12-13T22:07:15.771Z,32.30
2022-12-13T22:09:44.515Z,35.85
2022-12-13T22:12:19.483Z,36.72
2022-12-13T22:14:46.395Z,37.88
2022-12-13T22:17:13.465Z,40.08
2022-12-13T22:19:40.207Z,41.05
2022-12-13T22:22:07.194Z,38.75
2022-12-13T22:24:34.031Z,39.58
2022-12-13T22:27:01.904Z,41.42
2022-12-13T22:29:28.599Z,35.38
2022-12-13T22:31:55.341Z,37.63
2022-12-13T22:34:22.106Z,36.50
2022-12-13T22:36:48.867Z,33.05
2022-12-13T22:39:17.811Z,36.45
2022-12-13T22:41:45.208Z,32.80
2022-12-13T22:44:12.681Z,35.13
2022-12-13T22:46:39.493Z,36.13
2022-12-13T22:49:06.260Z,34.40
2022-12-13T22:51:32.944Z,34.25
2022-12-13T22:53:59.619Z,32.40
2022-12-13T22:56:26.458Z,34.72
2022-12-13T22:58:58.049Z,35.13
2022-12-13T23:01:27.379Z,32.80
2022-12-13T23:03:54.076Z,31.30
2022-12-13T23:06:23.556Z,32.00
2022-12-13T23:08:52.434Z,31.35
2022-12-13T23:11:38.149Z,29.88
2022-12-13T23:14:07.141Z,31.73
2022-12-13T23:16:34.652Z,32.88
2022-12-13T23:19:32.295Z,32.90
2022-12-13T23:21:49.298Z,30.13
2022-12-13T23:24:15.990Z,33.00
2022-12-13T23:26:42.684Z,32.33
2022-12-13T23:29:09.883Z,31.10
2022-12-13T23:31:38.755Z,34.17
2022-12-13T23:34:05.564Z,34.95
2022-12-13T23:36:32.531Z,32.80
2022-12-13T23:39:00.030Z,34.38
2022-12-13T23:41:33.468Z,32.92
2022-12-13T23:44:01.283Z,31.48
2022-12-13T23:46:30.608Z,34.40
2022-12-13T23:49:01.047Z,37.15
2022-12-13T23:51:28.494Z,32.92
2022-12-13T23:53:55.620Z,35.05
2022-12-13T23:56:23.521Z,34.83
2022-12-13T23:58:50.801Z,35.50
